Time;durP1;ratioP1;P1;durP2;ratioP2;P2;SDS_P1;SDS_P2;PMS_P1;PMS_P2;Temp;Humidity;BMP_temperature;BMP_pressure;BME280_temperature;BME280_humidity;BME280_pressure;Samples;Min_cycle;Max_cycle;Signal;HPM_P1;HPM_P2
2023/04/09 00:02:21;;;;;;;8.70;7.37;;;10.10;85.20;;;;;;5092290;28;20228;-63
2023/04/09 00:04:48;;;;;;;10.47;8.10;;;10.10;85.30;;;;;;5087613;28;20196;-62
2023/04/09 00:07:15;;;;;;;8.33;7.53;;;10.00;85.40;;;;;;5090641;28;20184;-63
2023/04/09 00:09:41;;;;;;;7.90;7.10;;;10.00;85.70;;;;;;5090356;28;20204;-63
2023/04/09 00:12:09;;;;;;;8.77;7.10;;;10.00;85.90;;;;;;5091165;28;20529;-63
2023/04/09 00:14:36;;;;;;;8.23;7.37;;;10.00;86.10;;;;;;5089444;28;20232;-63
2023/04/09 00:17:03;;;;;;;10.13;8.77;;;10.00;86.20;;;;;;5093458;28;20213;-63
2023/04/09 00:19:30;;;;;;;8.13;7.03;;;9.90;86.20;;;;;;5087094;28;20250;-63
2023/04/09 00:21:57;;;;;;;7.90;6.90;;;9.90;86.50;;;;;;5088591;28;20198;-63
2023/04/09 00:24:24;;;;;;;8.83;7.00;;;9.80;87.10;;;;;;5091778;28;20235;-63
2023/04/09 00:26:52;;;;;;;9.27;7.13;;;9.80;87.30;;;;;;5091955;28;20231;-63
2023/04/09 00:29:19;;;;;;;9.70;7.90;;;9.80;87.50;;;;;;5091032;28;20203;-64
2023/04/09 00:31:46;;;;;;;13.47;10.27;;;9.80;87.80;;;;;;5088875;28;20224;-63
2023/04/09 00:34:13;;;;;;;10.40;6.53;;;9.80;87.40;;;;;;5092276;28;20275;-63
2023/04/09 00:36:40;;;;;;;7.60;6.83;;;9.70;87.50;;;;;;5092252;28;20200;-63
2023/04/09 00:39:07;;;;;;;8.03;6.83;;;9.80;87.30;;;;;;5091099;28;20682;-62
2023/04/09 00:41:34;;;;;;;8.20;7.37;;;9.70;87.00;;;;;;5090326;28;20201;-63
2023/04/09 00:44:01;;;;;;;10.77;7.57;;;9.70;86.90;;;;;;5092281;28;20694;-63
2023/04/09 00:46:29;;;;;;;12.90;8.17;;;9.70;86.80;;;;;;5085727;28;20215;-64
2023/04/09 00:48:56;;;;;;;8.57;7.03;;;9.60;86.80;;;;;;5091380;28;20219;-63
2023/04/09 00:51:24;;;;;;;8.17;7.37;;;9.60;86.80;;;;;;5090233;28;20205;-63
2023/04/09 00:53:51;;;;;;;9.10;8.17;;;9.60;86.80;;;;;;5090549;28;20229;-63
2023/04/09 00:56:21;;;;;;;7.63;6.83;;;9.60;86.90;;;;;;5089988;28;20204;-63
2023/04/09 00:58:48;;;;;;;8.60;7.70;;;9.60;86.90;;;;;;5084061;28;20197;-63
2023/04/09 01:01:15;;;;;;;11.07;7.67;;;9.60;86.70;;;;;;5092204;28;20207;-63
2023/04/09 01:03:42;;;;;;;8.27;7.37;;;9.50;86.60;;;;;;5086868;28;20245;-63
2023/04/09 01:06:20;;;;;;;9.43;8.30;;;9.50;86.60;;;;;;5089256;28;20238;-63
2023/04/09 01:09:07;;;;;;;8.03;7.10;;;9.40;86.90;;;;;;5083898;28;20524;-63
2023/04/09 01:11:45;;;;;;;6.70;6.00;;;9.40;87.50;;;;;;5089129;28;20257;-63
2023/04/09 01:14:32;;;;;;;7.57;6.43;;;9.30;87.30;;;;;;5103784;28;20313;-63
2023/04/09 01:17:05;;;;;;;7.17;6.47;;;9.30;86.60;;;;;;5089448;28;20516;-63
2023/04/09 01:19:35;;;;;;;8.80;7.90;;;9.20;86.40;;;;;;5091378;28;20215;-63
2023/04/09 01:22:06;;;;;;;8.93;8.03;;;9.10;86.70;;;;;;5090156;28;20198;-63
2023/04/09 01:24:59;;;;;;;9.30;7.33;;;9.10;86.90;;;;;;5090490;28;20263;-63
2023/04/09 01:27:45;;;;;;;9.23;8.27;;;9.00;87.20;;;;;;5083622;28;20235;-63
2023/04/09 01:30:15;;;;;;;10.17;8.47;;;9.00;87.80;;;;;;5091218;28;20187;-63
2023/04/09 01:32:42;;;;;;;12.47;9.73;;;9.10;88.40;;;;;;5081224;28;20623;-63
2023/04/09 01:35:11;;;;;;;10.13;9.03;;;9.00;88.60;;;;;;5093418;28;20199;-63
2023/04/09 01:37:39;;;;;;;9.27;8.10;;;9.00;88.90;;;;;;5094684;28;20203;-63
2023/04/09 01:40:07;;;;;;;10.97;8.87;;;9.00;89.20;;;;;;5094306;28;20572;-63
2023/04/09 01:42:35;;;;;;;10.10;8.67;;;9.00;89.50;;;;;;5093094;28;20200;-63
2023/04/09 01:45:04;;;;;;;11.83;9.10;;;9.00;89.60;;;;;;5095140;28;20199;-63
2023/04/09 01:47:32;;;;;;;11.33;8.80;;;9.00;89.70;;;;;;5094077;28;20284;-63
2023/04/09 01:50:00;;;;;;;9.00;8.00;;;9.00;89.80;;;;;;5089493;28;20278;-63
2023/04/09 01:52:27;;;;;;;10.33;8.57;;;9.00;89.50;;;;;;5091838;28;20240;-62
2023/04/09 01:54:54;;;;;;;8.93;7.83;;;9.00;89.30;;;;;;5074316;28;20210;-63
2023/04/09 01:57:21;;;;;;;9.23;8.33;;;9.00;89.10;;;;;;5083163;28;20285;-63
2023/04/09 01:59:48;;;;;;;10.30;9.20;;;9.00;88.90;;;;;;5094911;28;20311;-63
2023/04/09 02:02:21;;;;;;;10.60;8.87;;;9.00;88.90;;;;;;5094239;28;20244;-63
2023/04/09 02:04:52;;;;;;;11.90;8.60;;;8.90;88.80;;;;;;5095133;28;20225;-63
2023/04/09 02:07:42;;;;;;;9.70;8.73;;;8.90;89.00;;;;;;5093857;28;20193;-63
2023/04/09 02:10:12;;;;;;;14.23;9.50;;;8.90;89.30;;;;;;5092078;28;20221;-63
2023/04/09 02:12:47;;;;;;;11.00;9.20;;;8.90;89.30;;;;;;5094371;28;20277;-63
2023/04/09 02:15:14;;;;;;;11.30;8.37;;;8.90;89.50;;;;;;5101747;28;20267;-63
2023/04/09 02:17:42;;;;;;;11.40;9.17;;;8.90;89.50;;;;;;5095077;28;20204;-63
2023/04/09 02:20:10;;;;;;;11.57;8.80;;;8.80;89.50;;;;;;5094816;28;20198;-63
2023/04/09 02:22:38;;;;;;;14.60;9.60;;;8.80;89.70;;;;;;5087679;28;20202;-63
2023/04/09 02:25:05;;;;;;;10.57;9.47;;;8.90;89.90;;;;;;5107994;28;20208;-63
2023/04/09 02:27:32;;;;;;;10.20;9.07;;;8.90;89.90;;;;;;5090814;28;20580;-63
2023/04/09 02:29:59;;;;;;;11.73;10.00;;;8.90;89.80;;;;;;5095427;28;20202;-63
2023/04/09 02:32:26;;;;;;;11.90;9.90;;;8.90;89.80;;;;;;5094378;28;20196;-63
2023/04/09 02:34:53;;;;;;;12.23;9.67;;;8.80;89.70;;;;;;5095608;28;20558;-63
2023/04/09 02:37:20;;;;;;;12.63;9.60;;;8.80;89.90;;;;;;5091998;28;20229;-63
2023/04/09 02:39:47;;;;;;;11.93;9.63;;;8.80;90.00;;;;;;5091865;28;20195;-63
2023/04/09 02:42:14;;;;;;;12.83;10.10;;;8.80;90.10;;;;;;5094668;28;20290;-63
2023/04/09 02:44:43;;;;;;;12.03;9.97;;;8.80;90.10;;;;;;5092664;28;20231;-63
2023/04/09 02:47:11;;;;;;;11.57;9.57;;;8.80;90.00;;;;;;5106696;27;20205;-63
2023/04/09 02:49:39;;;;;;;13.57;10.57;;;8.80;90.10;;;;;;5090947;28;20198;-63
2023/04/09 02:52:05;;;;;;;12.03;9.90;;;8.80;90.10;;;;;;5092999;28;20231;-63
2023/04/09 02:54:33;;;;;;;12.63;10.07;;;8.80;90.10;;;;;;5092458;28;20197;-63
2023/04/09 02:56:59;;;;;;;15.10;11.33;;;8.70;90.10;;;;;;5093238;28;20232;-63
2023/04/09 02:59:26;;;;;;;12.93;10.30;;;8.70;90.00;;;;;;5090894;28;20683;-63
2023/04/09 03:01:54;;;;;;;12.43;10.33;;;8.70;90.10;;;;;;5094015;28;20297;-63
2023/04/09 03:04:21;;;;;;;12.10;10.00;;;8.60;90.20;;;;;;5092829;28;20230;-63
2023/04/09 03:06:49;;;;;;;13.20;10.50;;;8.60;90.30;;;;;;5093464;28;20185;-63
2023/04/09 03:09:16;;;;;;;16.43;11.63;;;8.70;90.30;;;;;;5093823;28;20223;-63
2023/04/09 03:11:43;;;;;;;10.27;9.27;;;8.70;90.20;;;;;;5087087;28;20691;-63
2023/04/09 03:14:10;;;;;;;10.80;9.67;;;8.70;90.60;;;;;;5090703;28;20211;-63
2023/04/09 03:16:37;;;;;;;10.53;9.43;;;8.60;90.20;;;;;;5090065;28;20251;-63
2023/04/09 03:19:04;;;;;;;11.20;9.67;;;8.70;90.10;;;;;;5092753;28;20635;-63
2023/04/09 03:21:32;;;;;;;13.00;9.70;;;8.60;89.60;;;;;;5093389;28;20208;-63
2023/04/09 03:23:59;;;;;;;12.67;9.90;;;8.60;89.60;;;;;;5093498;28;20309;-63
2023/04/09 03:26:26;;;;;;;12.50;9.90;;;8.60;90.00;;;;;;5082399;28;20199;-63
2023/04/09 03:28:53;;;;;;;11.67;10.03;;;8.60;90.00;;;;;;5091682;28;20638;-63
2023/04/09 03:31:21;;;;;;;10.20;9.13;;;8.60;90.10;;;;;;5091401;28;20192;-63
2023/04/09 03:33:48;;;;;;;11.97;9.90;;;8.60;90.10;;;;;;5091249;28;20204;-63
2023/04/09 03:36:15;;;;;;;11.43;10.27;;;8.60;90.40;;;;;;5093727;28;20207;-63
2023/04/09 03:39:02;;;;;;;17.67;10.37;;;8.70;90.20;;;;;;5105498;28;20301;-63
2023/04/09 03:41:35;;;;;;;11.87;10.27;;;8.70;90.20;;;;;;5092881;28;20538;-63
2023/04/09 03:44:07;;;;;;;14.07;10.07;;;8.70;90.20;;;;;;5083982;28;20213;-63
2023/04/09 03:46:44;;;;;;;11.27;9.77;;;8.70;90.30;;;;;;5084012;28;20223;-63
2023/04/09 03:49:15;;;;;;;10.87;9.63;;;8.70;90.40;;;;;;5093089;28;20208;-63
2023/04/09 03:51:43;;;;;;;13.80;10.77;;;8.80;90.40;;;;;;5089393;28;20238;-63
2023/04/09 03:54:11;;;;;;;12.37;10.33;;;8.80;90.40;;;;;;5091111;28;20582;-63
2023/04/09 03:56:40;;;;;;;13.13;11.23;;;8.80;90.50;;;;;;5091711;28;20204;-63
2023/04/09 03:59:11;;;;;;;15.27;11.77;;;8.80;90.60;;;;;;5091133;28;20271;-63
2023/04/09 04:01:44;;;;;;;16.40;11.50;;;8.90;90.70;;;;;;5092285;28;20215;-63
2023/04/09 04:04:11;;;;;;;10.73;8.90;;;8.90;90.70;;;;;;5107597;28;20278;-63
2023/04/09 04:06:52;;;;;;;13.93;10.43;;;8.90;90.50;;;;;;5091559;28;20186;-63
2023/04/09 04:09:29;;;;;;;12.40;10.87;;;8.90;90.50;;;;;;5098378;28;20199;-63
2023/04/09 04:12:01;;;;;;;15.10;11.73;;;8.80;90.40;;;;;;5103335;28;20541;-63
2023/04/09 04:14:51;;;;;;;12.87;10.93;;;8.80;90.50;;;;;;5084518;28;20663;-63
2023/04/09 04:17:31;;;;;;;17.27;11.73;;;8.70;90.60;;;;;;5090097;28;20211;-63
2023/04/09 04:20:00;;;;;;;14.40;11.17;;;8.70;90.80;;;;;;5086877;28;20202;-63
2023/04/09 04:22:32;;;;;;;13.07;11.13;;;8.70;90.90;;;;;;5091061;28;20191;-63
2023/04/09 04:24:59;;;;;;;14.27;12.77;;;8.70;90.90;;;;;;5084229;28;20221;-63
2023/04/09 04:27:29;;;;;;;12.70;11.40;;;8.80;91.00;;;;;;5087653;28;20823;-63
2023/04/09 04:29:57;;;;;;;14.43;11.97;;;8.80;91.10;;;;;;5092499;28;20230;-64
2023/04/09 04:32:45;;;;;;;15.17;11.70;;;8.80;91.00;;;;;;5082402;28;20217;-63
2023/04/09 04:35:12;;;;;;;14.60;11.93;;;8.80;91.00;;;;;;5099334;28;20202;-63
2023/04/09 04:37:40;;;;;;;13.33;10.73;;;8.80;91.10;;;;;;5086262;28;20209;-63
2023/04/09 04:40:08;;;;;;;12.83;11.53;;;8.80;91.10;;;;;;5092403;28;20727;-63
2023/04/09 04:42:39;;;;;;;14.20;11.67;;;8.80;91.00;;;;;;5091601;28;20289;-63
2023/04/09 04:45:12;;;;;;;16.70;13.37;;;8.80;91.10;;;;;;5091995;28;20589;-63
2023/04/09 04:47:44;;;;;;;16.30;11.87;;;8.80;91.20;;;;;;5090767;28;20636;-63
2023/04/09 04:50:12;;;;;;;12.43;10.87;;;8.90;91.20;;;;;;5087714;28;20236;-63
2023/04/09 04:53:02;;;;;;;16.40;11.57;;;8.90;91.30;;;;;;5088427;28;20294;-63
2023/04/09 04:55:38;;;;;;;13.30;11.90;;;8.90;91.30;;;;;;5091327;28;20196;-63
2023/04/09 04:58:07;;;;;;;17.03;11.43;;;8.90;91.30;;;;;;5088228;28;20204;-64
2023/04/09 05:00:42;;;;;;;13.73;12.27;;;8.80;91.30;;;;;;5092431;28;20206;-63
2023/04/09 05:03:09;;;;;;;16.00;12.33;;;8.90;91.20;;;;;;5089294;28;20198;-63
2023/04/09 05:05:52;;;;;;;14.67;11.80;;;8.90;91.30;;;;;;5105103;28;20248;-63
2023/04/09 05:08:20;;;;;;;17.37;12.80;;;8.90;91.40;;;;;;5086973;28;20202;-63
2023/04/09 05:10:50;;;;;;;12.80;11.47;;;8.90;91.50;;;;;;5095927;28;20234;-63
2023/04/09 05:13:18;;;;;;;14.20;12.13;;;9.00;91.60;;;;;;5087102;28;20289;-63
2023/04/09 05:15:45;;;;;;;14.10;11.60;;;9.00;91.60;;;;;;5092875;28;20194;-63
2023/04/09 05:18:12;;;;;;;12.00;10.73;;;9.00;91.60;;;;;;5106276;28;20292;-64
2023/04/09 05:20:40;;;;;;;13.77;12.23;;;9.00;91.40;;;;;;5077970;28;20207;-63
2023/04/09 05:23:11;;;;;;;16.60;13.00;;;9.00;91.50;;;;;;5079323;28;20230;-63
2023/04/09 05:25:48;;;;;;;14.17;11.50;;;9.00;91.60;;;;;;5095925;28;20675;-63
2023/04/09 05:28:23;;;;;;;16.50;12.43;;;9.10;91.70;;;;;;5090630;28;20267;-63
2023/04/09 05:31:01;;;;;;;13.67;12.27;;;9.10;91.80;;;;;;5091464;28;20205;-63
2023/04/09 05:33:36;;;;;;;13.87;11.97;;;9.20;91.80;;;;;;5084105;28;20221;-63
2023/04/09 05:36:15;;;;;;;14.30;11.97;;;9.20;91.80;;;;;;5094230;28;20536;-63
2023/04/09 05:38:42;;;;;;;12.63;11.33;;;9.20;91.90;;;;;;5087717;28;20195;-63
2023/04/09 05:41:09;;;;;;;17.50;12.23;;;9.30;91.90;;;;;;5094139;28;20222;-63
2023/04/09 05:43:47;;;;;;;15.43;12.67;;;9.30;91.90;;;;;;5091742;28;20294;-63
2023/04/09 05:46:14;;;;;;;15.03;11.73;;;9.40;92.00;;;;;;5092791;28;20228;-63
2023/04/09 05:48:41;;;;;;;17.37;12.60;;;9.40;91.90;;;;;;5088828;28;20223;-63
2023/04/09 05:51:08;;;;;;;16.27;12.17;;;9.50;91.90;;;;;;5082174;28;20201;-63
2023/04/09 05:53:36;;;;;;;14.87;12.87;;;9.60;91.90;;;;;;5053199;28;20214;-63
2023/04/09 05:56:15;;;;;;;15.83;13.00;;;9.70;92.20;;;;;;5045969;28;20634;-63
2023/04/09 05:58:50;;;;;;;14.93;13.33;;;9.80;92.00;;;;;;5067724;28;20270;-63
2023/04/09 06:01:17;;;;;;;15.13;12.50;;;9.90;92.00;;;;;;5053595;28;20263;-63
2023/04/09 06:03:44;;;;;;;14.90;13.33;;;10.00;92.00;;;;;;5053811;28;20209;-63
2023/04/09 06:06:12;;;;;;;19.13;15.00;;;10.10;92.00;;;;;;5054066;28;20593;-63
2023/04/09 06:08:39;;;;;;;17.17;13.93;;;10.20;91.90;;;;;;5061634;28;20201;-64
2023/04/09 06:11:10;;;;;;;17.37;14.00;;;10.20;91.70;;;;;;5050860;28;20299;-64
2023/04/09 06:13:37;;;;;;;19.33;14.87;;;10.30;91.70;;;;;;5049507;28;20199;-63
2023/04/09 06:16:08;;;;;;;14.13;12.63;;;10.40;91.60;;;;;;5053720;28;20209;-64
2023/04/09 06:18:36;;;;;;;19.67;14.07;;;10.50;91.60;;;;;;5052753;28;20201;-63
2023/04/09 06:21:07;;;;;;;20.17;15.87;;;10.60;91.60;;;;;;5052194;28;20233;-65
2023/04/09 06:23:35;;;;;;;16.17;14.20;;;10.70;91.50;;;;;;5054004;28;20190;-63
2023/04/09 06:26:02;;;;;;;17.97;14.60;;;10.80;91.50;;;;;;5049024;28;20205;-63
2023/04/09 06:28:30;;;;;;;23.97;17.07;;;10.90;91.50;;;;;;5053088;28;20288;-64
2023/04/09 06:30:57;;;;;;;23.13;16.03;;;11.00;91.40;;;;;;5052215;28;20271;-63
2023/04/09 06:33:25;;;;;;;18.77;16.23;;;11.20;91.30;;;;;;5055819;28;20202;-63
2023/04/09 06:35:52;;;;;;;24.00;17.20;;;11.20;91.10;;;;;;5055353;28;20215;-64
2023/04/09 06:38:19;;;;;;;20.70;16.50;;;11.40;91.00;;;;;;5054631;28;20205;-63
2023/04/09 06:40:46;;;;;;;20.80;16.13;;;11.50;90.90;;;;;;5050668;28;20233;-63
2023/04/09 06:43:13;;;;;;;19.07;16.27;;;11.50;90.80;;;;;;5054499;28;20211;-64
2023/04/09 06:45:48;;;;;;;17.83;14.90;;;11.60;90.60;;;;;;5052115;28;20694;-63
2023/04/09 06:48:15;;;;;;;18.27;15.47;;;11.70;90.40;;;;;;5050381;28;20204;-64
2023/04/09 06:50:43;;;;;;;19.97;14.37;;;11.80;90.20;;;;;;5051365;28;20201;-63
2023/04/09 06:53:10;;;;;;;17.60;15.73;;;11.90;90.30;;;;;;5084334;28;20669;-63
2023/04/09 06:55:37;;;;;;;17.93;13.60;;;12.00;90.20;;;;;;5094584;28;20585;-63
2023/04/09 06:58:04;;;;;;;15.33;13.63;;;12.10;90.30;;;;;;5092712;28;20246;-63
2023/04/09 07:00:31;;;;;;;14.63;13.13;;;12.20;90.20;;;;;;5092550;28;20312;-63
2023/04/09 07:02:58;;;;;;;13.17;11.53;;;12.30;90.30;;;;;;5093792;28;20204;-63
2023/04/09 07:05:26;;;;;;;13.57;11.93;;;12.40;90.30;;;;;;5092791;28;20242;-63
2023/04/09 07:07:53;;;;;;;13.73;12.33;;;12.50;89.70;;;;;;5090173;28;20534;-63
2023/04/09 07:10:20;;;;;;;13.60;12.20;;;12.60;90.00;;;;;;5094115;28;20201;-63
2023/04/09 07:12:47;;;;;;;12.93;10.93;;;12.70;90.00;;;;;;5091861;28;20564;-63
2023/04/09 07:15:14;;;;;;;12.90;11.47;;;12.70;89.80;;;;;;5093459;28;20200;-63
2023/04/09 07:17:41;;;;;;;11.40;10.17;;;12.70;89.60;;;;;;5088104;28;20214;-63
2023/04/09 07:20:09;;;;;;;11.83;9.80;;;12.70;89.60;;;;;;5094775;28;20295;-63
2023/04/09 07:22:36;;;;;;;14.20;11.07;;;12.70;89.50;;;;;;5093150;28;20235;-63
2023/04/09 07:25:03;;;;;;;11.50;9.67;;;12.80;89.60;;;;;;5092258;28;20653;-63
2023/04/09 07:27:30;;;;;;;11.97;9.83;;;12.80;89.40;;;;;;5094232;28;20224;-63
2023/04/09 07:29:58;;;;;;;12.07;9.40;;;12.80;89.50;;;;;;5093452;28;20617;-63
2023/04/09 07:32:29;;;;;;;11.80;8.53;;;12.80;89.50;;;;;;5090859;28;20196;-63
2023/04/09 07:34:58;;;;;;;9.73;8.40;;;12.90;88.90;;;;;;5089639;28;20207;-63
2023/04/09 07:37:25;;;;;;;10.13;8.90;;;12.90;89.30;;;;;;5092760;28;20206;-63
2023/04/09 07:39:52;;;;;;;12.27;8.37;;;13.10;89.40;;;;;;5092458;28;20215;-63
2023/04/09 07:42:19;;;;;;;7.70;6.73;;;13.30;89.40;;;;;;5091599;28;20276;-63
2023/04/09 07:44:47;;;;;;;9.47;7.60;;;13.50;89.00;;;;;;5091367;28;20228;-65
2023/04/09 07:47:14;;;;;;;8.10;7.07;;;13.70;87.00;;;;;;5092018;28;20193;-63
2023/04/09 07:49:41;;;;;;;8.33;6.40;;;13.80;85.90;;;;;;5092506;28;20196;-63
2023/04/09 07:52:08;;;;;;;8.20;6.67;;;13.80;85.30;;;;;;5089518;28;20355;-63
2023/04/09 07:54:35;;;;;;;7.53;6.57;;;13.90;85.70;;;;;;5091308;28;20196;-63
2023/04/09 07:57:02;;;;;;;7.07;6.07;;;14.00;84.60;;;;;;5091201;28;20209;-63
2023/04/09 07:59:30;;;;;;;8.07;6.27;;;14.10;84.80;;;;;;5088635;28;20228;-63
2023/04/09 08:01:57;;;;;;;7.70;6.83;;;14.30;82.70;;;;;;5092384;28;20209;-63
2023/04/09 08:04:25;;;;;;;7.03;5.77;;;14.50;83.50;;;;;;5090635;28;20700;-63
2023/04/09 08:06:53;;;;;;;6.93;6.03;;;14.80;84.00;;;;;;5092949;28;20193;-63
2023/04/09 08:09:20;;;;;;;7.37;5.40;;;15.10;83.40;;;;;;5092262;28;20198;-64
2023/04/09 08:11:48;;;;;;;6.00;5.40;;;15.40;82.30;;;;;;5090475;28;20499;-63
2023/04/09 08:14:16;;;;;;;6.00;5.40;;;15.70;81.50;;;;;;5093146;28;20200;-64
2023/04/09 08:16:45;;;;;;;9.23;5.97;;;16.00;79.30;;;;;;5086681;28;20289;-61
2023/04/09 08:19:15;;;;;;;5.83;4.93;;;16.20;74.10;;;;;;5093089;28;20266;-62
2023/04/09 08:21:43;;;;;;;5.83;5.10;;;16.30;76.10;;;;;;5090218;28;20193;-61
2023/04/09 08:24:11;;;;;;;8.87;5.40;;;16.40;76.10;;;;;;5091062;28;20219;-62
2023/04/09 08:26:39;;;;;;;6.47;3.90;;;16.60;76.10;;;;;;5090471;28;20203;-62
2023/04/09 08:29:07;;;;;;;6.80;4.87;;;16.70;75.70;;;;;;5089837;28;20232;-62
2023/04/09 08:31:36;;;;;;;4.20;3.47;;;16.90;74.10;;;;;;5087391;28;20230;-64
2023/04/09 08:34:03;;;;;;;4.13;3.70;;;17.00;73.00;;;;;;5089348;28;20282;-61
2023/04/09 08:36:31;;;;;;;4.37;3.37;;;17.10;72.50;;;;;;5092593;28;20230;-61
2023/04/09 08:38:59;;;;;;;4.53;3.40;;;17.20;70.60;;;;;;5089894;28;20201;-62
2023/04/09 08:41:28;;;;;;;4.23;3.77;;;17.10;69.70;;;;;;5092164;28;20198;-61
2023/04/09 08:43:56;;;;;;;6.57;3.70;;;17.10;68.40;;;;;;5090471;28;20262;-61
2023/04/09 08:46:26;;;;;;;5.90;3.90;;;17.10;68.40;;;;;;5093293;28;20201;-61
2023/04/09 08:48:53;;;;;;;5.10;3.57;;;17.20;68.80;;;;;;5093824;28;20202;-61
2023/04/09 08:51:23;;;;;;;5.00;3.47;;;17.20;67.50;;;;;;5095491;28;20204;-62
2023/04/09 08:53:57;;;;;;;4.93;3.60;;;17.20;68.30;;;;;;5095707;28;20202;-61
2023/04/09 08:56:27;;;;;;;3.97;3.57;;;17.20;66.90;;;;;;5093238;28;20217;-61
2023/04/09 08:58:55;;;;;;;4.83;3.77;;;17.10;67.20;;;;;;5095748;28;20207;-61
2023/04/09 09:01:24;;;;;;;4.50;4.07;;;17.00;68.00;;;;;;5094953;28;20308;-61
2023/04/09 09:04:03;;;;;;;3.90;3.60;;;16.90;67.30;;;;;;5094237;28;20255;-61
2023/04/09 09:06:32;;;;;;;5.17;3.40;;;16.90;68.30;;;;;;5094895;28;20222;-61
2023/04/09 09:09:04;;;;;;;5.13;4.20;;;17.00;68.70;;;;;;5095253;28;20206;-61
2023/04/09 09:11:33;;;;;;;5.47;4.00;;;17.00;68.40;;;;;;5094731;28;20191;-62
2023/04/09 09:14:04;;;;;;;9.67;4.97;;;17.10;68.80;;;;;;5094094;28;20233;-61
2023/04/09 09:16:33;;;;;;;4.70;4.30;;;17.20;67.90;;;;;;5094072;28;20201;-61
2023/04/09 09:19:01;;;;;;;5.83;4.27;;;17.20;68.00;;;;;;5096630;28;20286;-62
2023/04/09 09:21:29;;;;;;;4.93;4.53;;;17.40;68.20;;;;;;5093382;28;20215;-62
2023/04/09 09:23:56;;;;;;;4.30;3.90;;;17.60;67.10;;;;;;5095934;28;20240;-61
2023/04/09 09:26:28;;;;;;;4.97;4.50;;;17.70;66.30;;;;;;5093414;28;20216;-61
2023/04/09 09:29:00;;;;;;;5.17;4.10;;;17.70;66.40;;;;;;5095607;28;20203;-62
2023/04/09 09:31:27;;;;;;;4.33;3.83;;;17.80;66.40;;;;;;5092153;28;20229;-61
2023/04/09 09:33:55;;;;;;;4.20;3.73;;;17.80;66.20;;;;;;5088428;28;20201;-61
2023/04/09 09:36:33;;;;;;;2.73;2.40;;;17.80;66.20;;;;;;5089164;28;20238;-61
2023/04/09 09:39:03;;;;;;;2.90;2.70;;;17.80;63.90;;;;;;5089866;28;20517;-61
2023/04/09 09:41:30;;;;;;;2.70;2.13;;;17.70;63.90;;;;;;5096636;28;20208;-62
2023/04/09 09:43:57;;;;;;;1.50;1.40;;;17.70;62.80;;;;;;5094338;28;20281;-61
2023/04/09 09:46:25;;;;;;;2.87;1.93;;;17.70;62.40;;;;;;5095456;28;20222;-62
2023/04/09 09:48:53;;;;;;;2.97;2.60;;;17.80;61.10;;;;;;5093426;28;20212;-62
2023/04/09 09:51:26;;;;;;;3.30;2.50;;;17.90;60.80;;;;;;5095597;28;20210;-62
2023/04/09 09:53:57;;;;;;;3.07;2.83;;;18.00;60.50;;;;;;5094603;28;20278;-61
2023/04/09 09:56:31;;;;;;;3.27;2.97;;;18.10;60.40;;;;;;5094330;28;20580;-62
2023/04/09 09:59:10;;;;;;;3.37;3.07;;;18.20;60.00;;;;;;5093385;28;20522;-61
2023/04/09 10:01:39;;;;;;;2.40;2.20;;;18.30;60.10;;;;;;5094777;28;20206;-62
2023/04/09 10:04:12;;;;;;;2.83;2.53;;;18.50;60.40;;;;;;5095134;28;20287;-61
2023/04/09 10:06:43;;;;;;;2.50;2.20;;;18.80;59.40;;;;;;5094491;28;20302;-62
2023/04/09 10:09:11;;;;;;;2.63;2.43;;;19.00;59.10;;;;;;5091802;28;20288;-62
2023/04/09 10:11:42;;;;;;;3.07;2.20;;;19.30;56.00;;;;;;5092841;28;20208;-62
2023/04/09 10:14:09;;;;;;;2.93;2.63;;;19.30;55.90;;;;;;5092894;28;20295;-62
2023/04/09 10:16:37;;;;;;;2.67;2.03;;;19.40;57.50;;;;;;5091578;28;20214;-62
2023/04/09 10:19:05;;;;;;;3.30;2.60;;;19.50;57.90;;;;;;5093886;28;20236;-62
2023/04/09 10:21:49;;;;;;;2.53;2.23;;;19.70;57.20;;;;;;5094399;28;20204;-62
2023/04/09 10:24:16;;;;;;;2.33;1.87;;;19.70;57.10;;;;;;5090556;28;20288;-63
2023/04/09 10:26:43;;;;;;;2.20;2.00;;;19.80;55.10;;;;;;5093755;28;20220;-62
2023/04/09 10:29:15;;;;;;;3.67;2.07;;;19.80;55.70;;;;;;5092710;28;20239;-62
2023/04/09 10:31:52;;;;;;;2.47;1.67;;;19.70;56.00;;;;;;5093100;28;20626;-62
2023/04/09 10:34:25;;;;;;;3.57;1.93;;;19.70;55.60;;;;;;5091852;28;20533;-62
2023/04/09 10:36:56;;;;;;;3.17;1.50;;;19.70;57.10;;;;;;5087054;28;20254;-62
2023/04/09 10:39:29;;;;;;;2.03;1.80;;;19.70;55.80;;;;;;5094909;28;20201;-62
2023/04/09 10:42:06;;;;;;;1.57;1.47;;;19.70;55.90;;;;;;5089831;28;20211;-62
2023/04/09 10:44:34;;;;;;;3.57;1.80;;;19.70;55.10;;;;;;5093782;28;20291;-61
2023/04/09 10:47:02;;;;;;;1.43;1.33;;;19.70;54.40;;;;;;5093196;28;20294;-62
2023/04/09 10:49:39;;;;;;;1.30;1.20;;;19.70;51.90;;;;;;5091938;28;20255;-61
2023/04/09 10:52:09;;;;;;;1.57;0.87;;;19.40;51.80;;;;;;5090531;28;20241;-62
2023/04/09 10:54:44;;;;;;;1.80;1.70;;;19.20;52.20;;;;;;5091849;28;20208;-62
2023/04/09 10:57:16;;;;;;;2.67;1.90;;;19.10;53.00;;;;;;5090488;28;20633;-61
2023/04/09 10:59:50;;;;;;;2.63;1.47;;;19.00;53.20;;;;;;5092973;28;20195;-62
2023/04/09 11:02:47;;;;;;;1.50;1.40;;;19.20;53.40;;;;;;5095071;28;20645;-61
2023/04/09 11:05:21;;;;;;;1.90;1.80;;;19.40;50.50;;;;;;5092584;28;20218;-61
2023/04/09 11:08:04;;;;;;;2.33;2.13;;;19.40;52.10;;;;;;5091992;28;20211;-62
2023/04/09 11:10:32;;;;;;;2.00;1.83;;;19.50;51.40;;;;;;5091088;28;20525;-62
2023/04/09 11:13:00;;;;;;;1.10;1.07;;;19.50;50.80;;;;;;5093324;28;20204;-62
2023/04/09 11:15:28;;;;;;;2.80;1.57;;;19.50;49.30;;;;;;5093485;28;20299;-62
2023/04/09 11:17:56;;;;;;;1.60;1.50;;;19.60;50.10;;;;;;5092795;28;20201;-61
2023/04/09 11:20:25;;;;;;;2.00;1.83;;;19.60;50.50;;;;;;5090798;28;20211;-61
2023/04/09 11:22:55;;;;;;;2.87;1.67;;;19.70;51.30;;;;;;5092585;28;20265;-61
2023/04/09 11:25:24;;;;;;;2.40;2.20;;;19.80;51.70;;;;;;5091162;28;20243;-62
2023/04/09 11:27:52;;;;;;;4.10;2.63;;;20.00;51.30;;;;;;5093830;28;21573;-62
2023/04/09 11:30:19;;;;;;;2.50;2.20;;;20.10;51.70;;;;;;5092760;28;20547;-63
2023/04/09 11:32:47;;;;;;;2.47;2.27;;;20.20;52.40;;;;;;5093667;28;20660;-62
2023/04/09 11:35:17;;;;;;;2.60;2.40;;;20.30;50.70;;;;;;5092372;28;20208;-62
2023/04/09 11:37:45;;;;;;;3.10;2.40;;;20.30;50.80;;;;;;5093329;28;20205;-62
2023/04/09 11:40:25;;;;;;;2.50;2.30;;;20.20;52.00;;;;;;5087542;28;20200;-63
2023/04/09 11:42:54;;;;;;;2.63;2.40;;;20.20;49.20;;;;;;5091135;28;20202;-62
2023/04/09 11:45:23;;;;;;;4.40;2.30;;;19.90;48.60;;;;;;5091002;28;20229;-62
2023/04/09 11:47:51;;;;;;;2.57;2.37;;;19.70;49.60;;;;;;5092127;28;20668;-62
2023/04/09 11:50:19;;;;;;;3.13;2.20;;;19.70;51.00;;;;;;5092732;28;20206;-62
2023/04/09 11:52:46;;;;;;;2.43;2.10;;;19.90;50.50;;;;;;5088649;28;20244;-61
2023/04/09 11:55:24;;;;;;;4.60;1.90;;;20.00;47.90;;;;;;5092875;28;20282;-64
2023/04/09 11:57:56;;;;;;;2.00;1.90;;;20.00;48.60;;;;;;5089337;28;20200;-62
2023/04/09 12:00:23;;;;;;;3.57;2.47;;;19.90;50.10;;;;;;5092360;28;20206;-62
2023/04/09 12:03:00;;;;;;;3.93;2.37;;;19.70;50.90;;;;;;5092955;28;20204;-62
2023/04/09 12:05:29;;;;;;;2.20;2.00;;;19.60;51.10;;;;;;5092742;28;20583;-61
2023/04/09 12:07:59;;;;;;;1.60;1.50;;;19.70;50.70;;;;;;5091391;28;20196;-62
2023/04/09 12:10:28;;;;;;;1.70;1.60;;;19.90;49.40;;;;;;5093201;28;20569;-61
2023/04/09 12:13:09;;;;;;;1.27;1.20;;;20.10;48.70;;;;;;5090213;28;20230;-62
2023/04/09 12:15:40;;;;;;;1.57;1.30;;;20.30;46.90;;;;;;5089707;28;20258;-62
2023/04/09 12:18:11;;;;;;;2.10;1.57;;;20.40;48.20;;;;;;5092828;28;20203;-62
2023/04/09 12:20:41;;;;;;;1.53;1.43;;;20.50;47.00;;;;;;5093084;28;20304;-62
2023/04/09 12:23:09;;;;;;;3.87;1.23;;;20.60;45.60;;;;;;5091623;28;20212;-62
2023/04/09 12:25:38;;;;;;;1.57;1.43;;;20.60;45.70;;;;;;5092675;28;20227;-62
2023/04/09 12:28:06;;;;;;;3.70;1.90;;;20.60;45.70;;;;;;5088646;28;20200;-62
2023/04/09 12:30:34;;;;;;;2.73;1.63;;;20.60;44.80;;;;;;5089092;28;20197;-62
2023/04/09 12:33:03;;;;;;;1.50;1.40;;;20.60;44.80;;;;;;5093093;28;20201;-62
2023/04/09 12:35:30;;;;;;;1.47;1.27;;;20.60;46.20;;;;;;5090884;28;20212;-62
2023/04/09 12:38:00;;;;;;;2.00;1.80;;;20.60;47.70;;;;;;5087870;28;20594;-62
2023/04/09 12:40:27;;;;;;;2.47;1.70;;;20.70;46.40;;;;;;5087388;28;20251;-62
2023/04/09 12:42:54;;;;;;;1.60;1.43;;;20.50;44.90;;;;;;5092843;28;20190;-61
2023/04/09 12:45:22;;;;;;;2.00;1.80;;;20.50;47.20;;;;;;5089247;28;20193;-62
2023/04/09 12:47:49;;;;;;;1.30;1.20;;;20.50;43.60;;;;;;5092993;28;20209;-62
2023/04/09 12:50:16;;;;;;;1.60;1.50;;;20.50;44.60;;;;;;5089101;28;20250;-64
2023/04/09 12:52:44;;;;;;;4.27;1.57;;;20.50;43.80;;;;;;5090633;28;20578;-62
2023/04/09 12:55:13;;;;;;;1.83;1.50;;;20.50;44.60;;;;;;5087395;28;20551;-62
2023/04/09 12:57:43;;;;;;;1.87;1.67;;;20.40;44.80;;;;;;5089848;28;20707;-61